sensor_id;sensor_type;location;lat;lon;timestamp;pressure;altitude;pressure_sealevel;temperature;humidity
40502;BME280;29631;49.168;9.848;2023-10-09T00:02:12;97230.09;;;21.50;78.38
40502;BME280;29631;49.168;9.848;2023-10-09T00:04:40;97237.44;;;21.60;78.24
40502;BME280;29631;49.168;9.848;2023-10-09T00:07:07;97237.44;;;21.60;78.33
40502;BME280;29631;49.168;9.848;2023-10-09T00:09:36;97234.22;;;21.58;78.19
40502;BME280;29631;49.168;9.848;2023-10-09T00:12:22;97228.88;;;21.58;78.26
40502;BME280;29631;49.168;9.848;2023-10-09T00:14:49;97224.00;;;21.55;78.26
40502;BME280;29631;49.168;9.848;2023-10-09T00:17:19;97234.53;;;21.61;78.18
40502;BME280;29631;49.168;9.848;2023-10-09T00:19:46;97220.53;;;21.59;78.02
40502;BME280;29631;49.168;9.848;2023-10-09T00:22:25;97232.13;;;21.65;77.94
40502;BME280;29631;49.168;9.848;2023-10-09T00:24:56;97230.25;;;21.65;77.78
40502;BME280;29631;49.168;9.848;2023-10-09T00:27:42;97229.44;;;21.65;77.97
40502;BME280;29631;49.168;9.848;2023-10-09T00:30:13;97218.16;;;21.63;78.22
40502;BME280;29631;49.168;9.848;2023-10-09T00:32:43;97216.53;;;21.62;77.89
40502;BME280;29631;49.168;9.848;2023-10-09T00:35:27;97220.84;;;21.68;77.87
40502;BME280;29631;49.168;9.848;2023-10-09T00:38:03;97213.34;;;21.70;78.04
40502;BME280;29631;49.168;9.848;2023-10-09T00:40:40;97208.78;;;21.70;78.09
40502;BME280;29631;49.168;9.848;2023-10-09T00:43:13;97205.31;;;21.70;77.93
40502;BME280;29631;49.168;9.848;2023-10-09T00:45:41;97197.53;;;21.68;78.01
40502;BME280;29631;49.168;9.848;2023-10-09T00:48:09;97208.56;;;21.72;78.02
40502;BME280;29631;49.168;9.848;2023-10-09T00:50:35;97191.03;;;21.64;78.16
40502;BME280;29631;49.168;9.848;2023-10-09T00:53:02;97190.25;;;21.64;78.10
40502;BME280;29631;49.168;9.848;2023-10-09T00:55:37;97203.69;;;21.74;77.56
40502;BME280;29631;49.168;9.848;2023-10-09T00:58:12;97195.66;;;21.74;78.02
40502;BME280;29631;49.168;9.848;2023-10-09T01:00:43;97185.97;;;21.73;78.12
40502;BME280;29631;49.168;9.848;2023-10-09T01:03:10;97185.97;;;21.73;77.82
40502;BME280;29631;49.168;9.848;2023-10-09T01:05:50;97186.78;;;21.68;77.74
40502;BME280;29631;49.168;9.848;2023-10-09T01:08:35;97187.06;;;21.72;77.57
40502;BME280;29631;49.168;9.848;2023-10-09T01:11:15;97181.66;;;21.67;77.58
40502;BME280;29631;49.168;9.848;2023-10-09T01:13:46;97183.28;;;21.73;77.46
40502;BME280;29631;49.168;9.848;2023-10-09T01:16:12;97171.47;;;21.69;77.91
40502;BME280;29631;49.168;9.848;2023-10-09T01:18:53;97169.28;;;21.61;77.83
40502;BME280;29631;49.168;9.848;2023-10-09T01:21:22;97170.91;;;21.62;77.88
40502;BME280;29631;49.168;9.848;2023-10-09T01:23:53;97164.19;;;21.59;77.57
40502;BME280;29631;49.168;9.848;2023-10-09T01:26:40;97166.06;;;21.59;77.98
40502;BME280;29631;49.168;9.848;2023-10-09T01:29:11;97167.16;;;21.63;77.73
40502;BME280;29631;49.168;9.848;2023-10-09T01:31:53;97170.91;;;21.62;77.65
40502;BME280;29631;49.168;9.848;2023-10-09T01:34:30;97168.78;;;21.64;77.60
40502;BME280;29631;49.168;9.848;2023-10-09T01:37:13;97170.63;;;21.63;77.56
40502;BME280;29631;49.168;9.848;2023-10-09T01:39:58;97172.00;;;21.66;77.81
40502;BME280;29631;49.168;9.848;2023-10-09T01:42:25;97170.41;;;21.70;78.04
40502;BME280;29631;49.168;9.848;2023-10-09T01:45:11;97160.72;;;21.69;77.48
40502;BME280;29631;49.168;9.848;2023-10-09T01:47:39;97156.97;;;21.70;77.65
40502;BME280;29631;49.168;9.848;2023-10-09T01:50:06;97155.38;;;21.69;77.56
40502;BME280;29631;49.168;9.848;2023-10-09T01:52:38;97159.94;;;21.68;77.39
40502;BME280;29631;49.168;9.848;2023-10-09T01:55:04;97157.25;;;21.68;77.38
40502;BME280;29631;49.168;9.848;2023-10-09T01:57:50;97142.94;;;21.53;77.29
40502;BME280;29631;49.168;9.848;2023-10-09T02:00:16;97147.28;;;21.59;77.40
40502;BME280;29631;49.168;9.848;2023-10-09T02:02:49;97147.28;;;21.59;77.49
40502;BME280;29631;49.168;9.848;2023-10-09T02:05:16;97149.97;;;21.59;77.81
40502;BME280;29631;49.168;9.848;2023-10-09T02:07:44;97148.63;;;21.61;77.71
40502;BME280;29631;49.168;9.848;2023-10-09T02:10:15;97148.88;;;21.60;77.25
40502;BME280;29631;49.168;9.848;2023-10-09T02:12:50;97149.72;;;21.65;77.23
40502;BME280;29631;49.168;9.848;2023-10-09T02:15:19;97142.72;;;21.64;77.30
40502;BME280;29631;49.168;9.848;2023-10-09T02:18:05;97144.88;;;21.62;77.21
40502;BME280;29631;49.168;9.848;2023-10-09T02:20:47;97140.81;;;21.60;77.50
40502;BME280;29631;49.168;9.848;2023-10-09T02:23:26;97138.13;;;21.55;77.21
40502;BME280;29631;49.168;9.848;2023-10-09T02:26:04;97137.31;;;21.54;77.41
40502;BME280;29631;49.168;9.848;2023-10-09T02:28:32;97137.00;;;21.51;77.44
40502;BME280;29631;49.168;9.848;2023-10-09T02:31:11;97142.97;;;21.58;76.98
40502;BME280;29631;49.168;9.848;2023-10-09T02:33:37;97133.25;;;21.52;77.03
40502;BME280;29631;49.168;9.848;2023-10-09T02:36:11;97134.63;;;21.54;77.11
40502;BME280;29631;49.168;9.848;2023-10-09T02:38:38;97137.88;;;21.61;77.41
40502;BME280;29631;49.168;9.848;2023-10-09T02:41:08;97139.75;;;21.61;77.19
40502;BME280;29631;49.168;9.848;2023-10-09T02:43:37;97138.19;;;21.65;77.60
40502;BME280;29631;49.168;9.848;2023-10-09T02:46:18;97134.66;;;21.64;76.95
40502;BME280;29631;49.168;9.848;2023-10-09T02:48:49;97130.38;;;21.63;77.00
40502;BME280;29631;49.168;9.848;2023-10-09T02:51:23;97118.81;;;21.58;76.85
40502;BME280;29631;49.168;9.848;2023-10-09T02:53:56;97125.81;;;21.64;77.38
40502;BME280;29631;49.168;9.848;2023-10-09T02:56:26;97123.41;;;21.62;77.59
40502;BME280;29631;49.168;9.848;2023-10-09T02:59:04;97126.91;;;21.68;77.33
40502;BME280;29631;49.168;9.848;2023-10-09T03:01:38;97133.09;;;21.68;77.38
40502;BME280;29631;49.168;9.848;2023-10-09T03:04:05;97108.09;;;21.63;77.12
40502;BME280;29631;49.168;9.848;2023-10-09T03:06:37;97106.47;;;21.62;77.20
40502;BME280;29631;49.168;9.848;2023-10-09T03:09:10;97110.22;;;21.61;77.26
40502;BME280;29631;49.168;9.848;2023-10-09T03:11:52;97107.59;;;21.66;77.27
40502;BME280;29631;49.168;9.848;2023-10-09T03:14:34;97099.47;;;21.61;76.78
40502;BME280;29631;49.168;9.848;2023-10-09T03:17:07;97103.22;;;21.60;76.96
40502;BME280;29631;49.168;9.848;2023-10-09T03:19:37;97104.84;;;21.61;77.21
40502;BME280;29631;49.168;9.848;2023-10-09T03:22:07;97098.41;;;21.57;76.46
40502;BME280;29631;49.168;9.848;2023-10-09T03:24:36;97110.22;;;21.61;76.74
40502;BME280;29631;49.168;9.848;2023-10-09T03:27:03;97107.00;;;21.59;76.60
40502;BME280;29631;49.168;9.848;2023-10-09T03:29:29;97107.53;;;21.61;76.60
40502;BME280;29631;49.168;9.848;2023-10-09T03:31:55;97112.13;;;21.65;76.52
40502;BME280;29631;49.168;9.848;2023-10-09T03:34:23;97120.47;;;21.69;76.64
40502;BME280;29631;49.168;9.848;2023-10-09T03:36:50;97111.63;;;21.68;76.80
40502;BME280;29631;49.168;9.848;2023-10-09T03:39:30;97117.28;;;21.72;76.79
40502;BME280;29631;49.168;9.848;2023-10-09T03:42:12;97121.59;;;21.78;76.67
40502;BME280;29631;49.168;9.848;2023-10-09T03:44:45;97123.16;;;21.74;76.84
40502;BME280;29631;49.168;9.848;2023-10-09T03:47:17;97110.00;;;21.72;77.13
40502;BME280;29631;49.168;9.848;2023-10-09T03:49:49;97117.84;;;21.79;76.80
40502;BME280;29631;49.168;9.848;2023-10-09T03:52:17;97122.38;;;21.78;77.01
40502;BME280;29631;49.168;9.848;2023-10-09T03:54:44;97125.34;;;21.77;77.30
40502;BME280;29631;49.168;9.848;2023-10-09T03:57:12;97126.94;;;21.78;77.22
40502;BME280;29631;49.168;9.848;2023-10-09T03:59:45;97127.47;;;21.75;77.09
40502;BME280;29631;49.168;9.848;2023-10-09T04:02:14;97128.28;;;21.75;77.07
40502;BME280;29631;49.168;9.848;2023-10-09T04:04:40;97133.38;;;21.72;76.76
40502;BME280;29631;49.168;9.848;2023-10-09T04:07:11;97129.88;;;21.71;77.47
40502;BME280;29631;49.168;9.848;2023-10-09T04:09:37;97130.13;;;21.70;77.48
40502;BME280;29631;49.168;9.848;2023-10-09T04:12:05;97131.19;;;21.64;76.98
40502;BME280;29631;49.168;9.848;2023-10-09T04:14:38;97117.16;;;21.52;77.26
40502;BME280;29631;49.168;9.848;2023-10-09T04:17:13;97126.31;;;21.56;77.54
40502;BME280;29631;49.168;9.848;2023-10-09T04:19:48;97118.78;;;21.53;77.66
40502;BME280;29631;49.168;9.848;2023-10-09T04:22:14;97111.22;;;21.50;77.18
40502;BME280;29631;49.168;9.848;2023-10-09T04:24:53;97101.53;;;21.39;77.68
40502;BME280;29631;49.168;9.848;2023-10-09T04:27:18;97116.56;;;21.45;77.47
40502;BME280;29631;49.168;9.848;2023-10-09T04:29:55;97113.88;;;21.40;77.59
40502;BME280;29631;49.168;9.848;2023-10-09T04:32:22;97109.03;;;21.37;76.96
40502;BME280;29631;49.168;9.848;2023-10-09T04:34:51;97105.78;;;21.35;76.94
40502;BME280;29631;49.168;9.848;2023-10-09T04:37:35;97110.63;;;21.33;77.42
40502;BME280;29631;49.168;9.848;2023-10-09T04:40:08;97115.94;;;21.28;77.33
40502;BME280;29631;49.168;9.848;2023-10-09T04:42:38;97103.56;;;21.22;77.33
40502;BME280;29631;49.168;9.848;2023-10-09T04:45:07;97108.13;;;21.17;77.47
40502;BME280;29631;49.168;9.848;2023-10-09T04:47:37;97104.59;;;21.11;77.51
40502;BME280;29631;49.168;9.848;2023-10-09T04:50:08;97092.22;;;21.05;77.36
40502;BME280;29631;49.168;9.848;2023-10-09T04:52:35;97102.44;;;21.08;77.49
40502;BME280;29631;49.168;9.848;2023-10-09T04:55:01;97079.84;;;20.99;77.20
40502;BME280;29631;49.168;9.848;2023-10-09T04:57:41;97082.78;;;20.98;77.53
40502;BME280;29631;49.168;9.848;2023-10-09T05:00:16;97089.22;;;20.97;77.25
40502;BME280;29631;49.168;9.848;2023-10-09T05:02:56;97072.28;;;20.91;77.46
40502;BME280;29631;49.168;9.848;2023-10-09T05:05:36;97078.72;;;20.90;77.50
40502;BME280;29631;49.168;9.848;2023-10-09T05:08:16;97073.31;;;20.85;77.55
40502;BME280;29631;49.168;9.848;2023-10-09T05:13:33;97083.00;;;20.91;77.52
40502;BME280;29631;49.168;9.848;2023-10-09T05:16:16;97086.25;;;20.93;77.09
40502;BME280;29631;49.168;9.848;2023-10-09T05:18:51;97088.94;;;20.93;77.09
40502;BME280;29631;49.168;9.848;2023-10-09T05:21:36;97090.50;;;20.89;77.00
40502;BME280;29631;49.168;9.848;2023-10-09T05:24:11;97092.66;;;20.92;77.20
40502;BME280;29631;49.168;9.848;2023-10-09T05:26:38;97098.59;;;20.94;76.92
40502;BME280;29631;49.168;9.848;2023-10-09T05:29:17;97106.63;;;20.94;76.96
40502;BME280;29631;49.168;9.848;2023-10-09T05:31:59;97101.50;;;20.93;76.69
40502;BME280;29631;49.168;9.848;2023-10-09T05:34:32;97107.69;;;20.93;77.19
40502;BME280;29631;49.168;9.848;2023-10-09T05:37:21;97103.09;;;20.89;76.94
40502;BME280;29631;49.168;9.848;2023-10-09T05:40:00;97105.50;;;20.85;77.23
40502;BME280;29631;49.168;9.848;2023-10-09T05:42:27;97112.47;;;20.86;77.16
40502;BME280;29631;49.168;9.848;2023-10-09T05:45:15;97109.53;;;20.88;77.60
40502;BME280;29631;49.168;9.848;2023-10-09T05:48:00;97116.50;;;20.89;77.46
40502;BME280;29631;49.168;9.848;2023-10-09T05:50:52;97109.78;;;20.86;77.51
40502;BME280;29631;49.168;9.848;2023-10-09T05:53:47;97112.97;;;20.83;77.64
40502;BME280;29631;49.168;9.848;2023-10-09T05:56:13;97117.53;;;20.83;77.37
40502;BME280;29631;49.168;9.848;2023-10-09T05:58:57;97114.31;;;20.86;77.63
40502;BME280;29631;49.168;9.848;2023-10-09T06:01:41;97117.84;;;20.86;77.44
40502;BME280;29631;49.168;9.848;2023-10-09T06:04:22;97121.56;;;20.85;77.70
40502;BME280;29631;49.168;9.848;2023-10-09T06:07:00;97114.59;;;20.84;77.96
40502;BME280;29631;49.168;9.848;2023-10-09T06:09:36;97122.66;;;20.89;77.89
40502;BME280;29631;49.168;9.848;2023-10-09T06:12:21;97124.84;;;20.92;78.21
40502;BME280;29631;49.168;9.848;2023-10-09T06:15:15;97128.63;;;20.96;78.37
40502;BME280;29631;49.168;9.848;2023-10-09T06:17:46;97125.94;;;20.96;78.45
40502;BME280;29631;49.168;9.848;2023-10-09T06:20:17;97132.91;;;20.97;78.20
40502;BME280;29631;49.168;9.848;2023-10-09T06:23:02;97121.41;;;20.97;78.42
40502;BME280;29631;49.168;9.848;2023-10-09T06:25:44;97126.50;;;20.98;78.68
40502;BME280;29631;49.168;9.848;2023-10-09T06:28:28;97118.44;;;20.98;78.67
40502;BME280;29631;49.168;9.848;2023-10-09T06:30:59;97129.72;;;21.00;78.36
40502;BME280;29631;49.168;9.848;2023-10-09T06:33:45;97127.59;;;21.02;78.71
40502;BME280;29631;49.168;9.848;2023-10-09T06:36:31;97122.78;;;21.04;78.45
40502;BME280;29631;49.168;9.848;2023-10-09T06:38:56;97126.31;;;21.10;78.91
40502;BME280;29631;49.168;9.848;2023-10-09T06:41:48;97131.97;;;21.13;78.67
40502;BME280;29631;49.168;9.848;2023-10-09T06:44:34;97140.81;;;21.14;78.53
40502;BME280;29631;49.168;9.848;2023-10-09T06:47:18;97137.84;;;21.15;78.76
40502;BME280;29631;49.168;9.848;2023-10-09T06:49:44;97136.25;;;21.14;78.93
40502;BME280;29631;49.168;9.848;2023-10-09T06:52:30;97135.72;;;21.17;78.77
40502;BME280;29631;49.168;9.848;2023-10-09T06:55:15;97135.22;;;21.20;79.20
40502;BME280;29631;49.168;9.848;2023-10-09T06:57:57;97146.53;;;21.27;79.26
40502;BME280;29631;49.168;9.848;2023-10-09T07:00:27;97140.09;;;21.28;79.43
40502;BME280;29631;49.168;9.848;2023-10-09T07:03:12;97135.81;;;21.27;79.41
40502;BME280;29631;49.168;9.848;2023-10-09T07:05:39;97144.38;;;21.29;79.41
40502;BME280;29631;49.168;9.848;2023-10-09T07:08:23;97137.69;;;21.31;79.35
40502;BME280;29631;49.168;9.848;2023-10-09T07:11:00;97140.94;;;21.33;79.41
40502;BME280;29631;49.168;9.848;2023-10-09T07:13:44;97134.78;;;21.38;79.30
40502;BME280;29631;49.168;9.848;2023-10-09T07:16:21;97142.31;;;21.41;79.00
40502;BME280;29631;49.168;9.848;2023-10-09T07:18:49;97139.38;;;21.42;79.37
40502;BME280;29631;49.168;9.848;2023-10-09T07:21:15;97141.78;;;21.44;78.94
40502;BME280;29631;49.168;9.848;2023-10-09T07:23:44;97143.69;;;21.43;79.31
40502;BME280;29631;49.168;9.848;2023-10-09T07:26:14;97155.78;;;21.46;79.22
40502;BME280;29631;49.168;9.848;2023-10-09T07:28:45;97146.63;;;21.47;79.31
40502;BME280;29631;49.168;9.848;2023-10-09T07:31:18;97144.50;;;21.49;79.20
40502;BME280;29631;49.168;9.848;2023-10-09T07:33:51;97158.78;;;21.54;78.95
40502;BME280;29631;49.168;9.848;2023-10-09T07:36:23;97160.41;;;21.55;78.80
40502;BME280;29631;49.168;9.848;2023-10-09T07:39:01;97164.44;;;21.58;78.90
40502;BME280;29631;49.168;9.848;2023-10-09T07:41:31;97161.22;;;21.56;78.87
40502;BME280;29631;49.168;9.848;2023-10-09T07:43:57;97163.91;;;21.61;78.79
40502;BME280;29631;49.168;9.848;2023-10-09T07:46:23;97158.81;;;21.64;78.50
40502;BME280;29631;49.168;9.848;2023-10-09T07:49:02;97154.78;;;21.62;78.97
40502;BME280;29631;49.168;9.848;2023-10-09T07:51:44;97163.97;;;21.66;79.04
40502;BME280;29631;49.168;9.848;2023-10-09T07:54:13;97157.50;;;21.67;78.31
40502;BME280;29631;49.168;9.848;2023-10-09T07:56:57;97161.28;;;21.71;78.23
40502;BME280;29631;49.168;9.848;2023-10-09T07:59:35;97168.81;;;21.74;78.83
40502;BME280;29631;49.168;9.848;2023-10-09T08:02:07;97169.34;;;21.71;78.72
40502;BME280;29631;49.168;9.848;2023-10-09T08:04:39;97179.03;;;21.77;78.68
40502;BME280;29631;49.168;9.848;2023-10-09T08:07:15;97168.28;;;21.77;78.42
40502;BME280;29631;49.168;9.848;2023-10-09T08:10:04;97158.88;;;21.74;78.42
40502;BME280;29631;49.168;9.848;2023-10-09T08:12:40;97167.75;;;21.75;78.61
40502;BME280;29631;49.168;9.848;2023-10-09T08:15:16;97166.66;;;21.76;78.51
40502;BME280;29631;49.168;9.848;2023-10-09T08:17:53;97171.53;;;21.79;78.59
40502;BME280;29631;49.168;9.848;2023-10-09T08:20:24;97179.03;;;21.82;78.28
40502;BME280;29631;49.168;9.848;2023-10-09T08:22:56;97181.22;;;21.85;78.58
40502;BME280;29631;49.168;9.848;2023-10-09T08:25:22;97175.88;;;21.90;78.25
40502;BME280;29631;49.168;9.848;2023-10-09T08:27:53;97185.53;;;21.91;77.90
40502;BME280;29631;49.168;9.848;2023-10-09T08:30:24;97187.44;;;21.95;78.14
40502;BME280;29631;49.168;9.848;2023-10-09T08:32:51;97181.78;;;21.92;78.40
40502;BME280;29631;49.168;9.848;2023-10-09T08:35:36;97187.69;;;21.93;77.65
40502;BME280;29631;49.168;9.848;2023-10-09T08:38:16;97197.66;;;21.98;77.91
40502;BME280;29631;49.168;9.848;2023-10-09T08:40:49;97192.00;;;21.99;78.31
40502;BME280;29631;49.168;9.848;2023-10-09T08:43:18;97192.84;;;22.05;78.41
40502;BME280;29631;49.168;9.848;2023-10-09T08:45:56;97201.44;;;22.07;78.26
40502;BME280;29631;49.168;9.848;2023-10-09T08:48:28;97194.75;;;22.09;78.31
40502;BME280;29631;49.168;9.848;2023-10-09T08:50:55;97211.38;;;22.11;78.39
40502;BME280;29631;49.168;9.848;2023-10-09T08:53:24;97200.91;;;22.10;78.19
40502;BME280;29631;49.168;9.848;2023-10-09T08:55:50;97210.38;;;22.17;77.89
40502;BME280;29631;49.168;9.848;2023-10-09T08:58:17;97216.25;;;22.19;78.22
40502;BME280;29631;49.168;9.848;2023-10-09T09:00:51;97208.22;;;22.24;78.00
40502;BME280;29631;49.168;9.848;2023-10-09T09:03:18;97210.97;;;22.29;77.86
40502;BME280;29631;49.168;9.848;2023-10-09T09:05:58;97211.44;;;22.26;78.04
40502;BME280;29631;49.168;9.848;2023-10-09T09:08:28;97217.41;;;22.33;78.18
40502;BME280;29631;49.168;9.848;2023-10-09T09:11:03;97211.53;;;22.36;78.02
40502;BME280;29631;49.168;9.848;2023-10-09T09:14:04;97214.22;;;22.41;77.75
40502;BME280;29631;49.168;9.848;2023-10-09T09:16:32;97215.84;;;22.47;77.73
40502;BME280;29631;49.168;9.848;2023-10-09T09:19:01;97223.38;;;22.50;77.64
40502;BME280;29631;49.168;9.848;2023-10-09T09:24:12;97218.53;;;22.57;77.66
40502;BME280;29631;49.168;9.848;2023-10-09T09:26:47;97214.78;;;22.58;77.82
40502;BME280;29631;49.168;9.848;2023-10-09T09:32:09;97224.47;;;22.64;77.65
40502;BME280;29631;49.168;9.848;2023-10-09T09:34:53;97211.31;;;22.63;77.78
40502;BME280;29631;49.168;9.848;2023-10-09T09:37:32;97220.19;;;22.68;77.42
40502;BME280;29631;49.168;9.848;2023-10-09T09:40:15;97233.38;;;22.69;77.37
40502;BME280;29631;49.168;9.848;2023-10-09T09:42:58;97226.63;;;22.72;77.53
40502;BME280;29631;49.168;9.848;2023-10-09T09:45:35;97224.50;;;22.74;77.18
40502;BME280;29631;49.168;9.848;2023-10-09T09:48:03;97222.88;;;22.83;77.22
40502;BME280;29631;49.168;9.848;2023-10-09T09:50:35;97224.50;;;22.84;77.60
40502;BME280;29631;49.168;9.848;2023-10-09T09:53:14;97228.28;;;22.88;76.81
40502;BME280;29631;49.168;9.848;2023-10-09T09:55:51;97234.19;;;22.95;77.13
40502;BME280;29631;49.168;9.848;2023-10-09T09:58:21;97229.94;;;23.04;77.68
40502;BME280;29631;49.168;9.848;2023-10-09T10:01:03;97236.66;;;23.06;77.43
40502;BME280;29631;49.168;9.848;2023-10-09T10:03:48;97234.22;;;23.10;77.28
40502;BME280;29631;49.168;9.848;2023-10-09T10:06:19;97241.78;;;23.18;77.33
40502;BME280;29631;49.168;9.848;2023-10-09T10:08:48;97246.09;;;23.19;76.84
40502;BME280;29631;49.168;9.848;2023-10-09T10:11:45;97227.78;;;23.16;77.31
40502;BME280;29631;49.168;9.848;2023-10-09T10:14:12;97241.50;;;23.24;77.28
40502;BME280;29631;49.168;9.848;2023-10-09T10:17:09;97235.03;;;23.25;77.16
40502;BME280;29631;49.168;9.848;2023-10-09T10:20:05;97241.22;;;23.31;77.93
40502;BME280;29631;49.168;9.848;2023-10-09T10:22:40;97242.56;;;23.38;77.51
40502;BME280;29631;49.168;9.848;2023-10-09T10:25:32;97239.88;;;23.43;77.45
40502;BME280;29631;49.168;9.848;2023-10-09T10:28:21;97224.50;;;23.53;77.42
40502;BME280;29631;49.168;9.848;2023-10-09T10:31:08;97225.03;;;23.60;77.18
40502;BME280;29631;49.168;9.848;2023-10-09T10:36:21;97227.19;;;23.73;77.73
40502;BME280;29631;49.168;9.848;2023-10-09T10:39:04;97237.16;;;23.78;77.21
40502;BME280;29631;49.168;9.848;2023-10-09T10:41:30;97239.56;;;23.84;77.18
40502;BME280;29631;49.168;9.848;2023-10-09T10:44:02;97221.78;;;23.83;77.09
40502;BME280;29631;49.168;9.848;2023-10-09T10:46:46;97212.09;;;23.82;77.53
40502;BME280;29631;49.168;9.848;2023-10-09T10:49:17;97211.00;;;23.88;77.17
40502;BME280;29631;49.168;9.848;2023-10-09T10:51:49;97214.22;;;23.90;77.21
40502;BME280;29631;49.168;9.848;2023-10-09T10:54:25;97202.38;;;23.86;77.09
40502;BME280;29631;49.168;9.848;2023-10-09T10:57:00;97200.22;;;23.88;77.75
40502;BME280;29631;49.168;9.848;2023-10-09T10:59:46;97209.38;;;23.87;77.55
40502;BME280;29631;49.168;9.848;2023-10-09T11:02:14;97203.97;;;23.87;77.56
40502;BME280;29631;49.168;9.848;2023-10-09T11:04:45;97216.38;;;23.88;77.06
40502;BME280;29631;49.168;9.848;2023-10-09T11:07:21;97230.13;;;23.82;76.81
40502;BME280;29631;49.168;9.848;2023-10-09T11:09:55;97239.03;;;23.82;77.09
40502;BME280;29631;49.168;9.848;2023-10-09T11:15:09;97231.22;;;23.86;76.49
40502;BME280;29631;49.168;9.848;2023-10-09T11:18:02;97201.59;;;23.76;76.22
40502;BME280;29631;49.168;9.848;2023-10-09T11:20:34;97211.00;;;23.83;76.61
40502;BME280;29631;49.168;9.848;2023-10-09T11:23:01;97188.63;;;23.83;76.24
40502;BME280;29631;49.168;9.848;2023-10-09T11:25:45;97176.56;;;23.75;76.37
40502;BME280;29631;49.168;9.848;2023-10-09T11:28:31;97204.53;;;23.84;76.74
40502;BME280;29631;49.168;9.848;2023-10-09T11:31:15;97212.59;;;23.89;76.35
40502;BME280;29631;49.168;9.848;2023-10-09T11:36:15;97189.94;;;23.95;76.20
40502;BME280;29631;49.168;9.848;2023-10-09T11:38:41;97190.47;;;23.92;76.30
40502;BME280;29631;49.168;9.848;2023-10-09T11:41:15;97206.63;;;24.02;76.13
40502;BME280;29631;49.168;9.848;2023-10-09T11:43:52;97222.22;;;24.05;75.85
40502;BME280;29631;49.168;9.848;2023-10-09T11:46:21;97219.25;;;24.12;76.01
40502;BME280;29631;49.168;9.848;2023-10-09T11:49:06;97203.94;;;24.02;76.24
40502;BME280;29631;49.168;9.848;2023-10-09T11:51:47;97167.38;;;23.81;75.83
40502;BME280;29631;49.168;9.848;2023-10-09T11:54:32;97224.91;;;24.15;75.73
40502;BME280;29631;49.168;9.848;2023-10-09T11:57:02;97231.81;;;24.31;75.54
40502;BME280;29631;49.168;9.848;2023-10-09T11:59:29;97221.66;;;24.23;75.20
40502;BME280;29631;49.168;9.848;2023-10-09T12:02:06;97145.78;;;23.91;75.44
40502;BME280;29631;49.168;9.848;2023-10-09T12:04:42;97214.28;;;24.43;75.11
40502;BME280;29631;49.168;9.848;2023-10-09T12:07:08;97165.06;;;24.13;75.05
40502;BME280;29631;49.168;9.848;2023-10-09T12:09:39;97205.91;;;24.45;74.93
40502;BME280;29631;49.168;9.848;2023-10-09T12:12:07;97207.94;;;24.63;75.38
40502;BME280;29631;49.168;9.848;2023-10-09T12:14:36;97192.84;;;24.67;75.55
40502;BME280;29631;49.168;9.848;2023-10-09T12:17:08;97187.06;;;24.83;75.49
40502;BME280;29631;49.168;9.848;2023-10-09T12:19:35;97171.34;;;24.90;75.41
40502;BME280;29631;49.168;9.848;2023-10-09T12:22:02;97140.28;;;24.92;75.78
40502;BME280;29631;49.168;9.848;2023-10-09T12:24:34;97115.34;;;25.05;74.90
40502;BME280;29631;49.168;9.848;2023-10-09T12:27:01;97083.31;;;24.94;74.80
40502;BME280;29631;49.168;9.848;2023-10-09T12:29:26;97093.19;;;25.08;74.75
40502;BME280;29631;49.168;9.848;2023-10-09T12:31:59;97095.19;;;25.26;74.21
40502;BME280;29631;49.168;9.848;2023-10-09T12:34:28;97095.19;;;25.26;74.40
40502;BME280;29631;49.168;9.848;2023-10-09T12:36:54;97106.38;;;25.38;74.22
40502;BME280;29631;49.168;9.848;2023-10-09T12:39:23;97080.09;;;25.20;73.62
40502;BME280;29631;49.168;9.848;2023-10-09T12:41:49;97121.25;;;25.59;73.75
40502;BME280;29631;49.168;9.848;2023-10-09T12:44:19;97097.59;;;25.51;73.47
40502;BME280;29631;49.168;9.848;2023-10-09T12:46:48;97114.63;;;25.75;73.19
40502;BME280;29631;49.168;9.848;2023-10-09T12:49:22;97119.91;;;25.85;73.10
40502;BME280;29631;49.168;9.848;2023-10-09T12:51:52;97120.34;;;25.92;72.94
40502;BME280;29631;49.168;9.848;2023-10-09T12:54:18;97127.81;;;26.00;72.75
40502;BME280;29631;49.168;9.848;2023-10-09T12:56:45;97107.88;;;25.96;72.96
40502;BME280;29631;49.168;9.848;2023-10-09T12:59:14;97111.47;;;26.10;72.54
40502;BME280;29631;49.168;9.848;2023-10-09T13:01:43;97121.28;;;26.24;72.33
40502;BME280;29631;49.168;9.848;2023-10-09T13:04:14;97106.50;;;26.17;71.78
40502;BME280;29631;49.168;9.848;2023-10-09T13:06:46;97105.63;;;26.21;72.17
40502;BME280;29631;49.168;9.848;2023-10-09T13:09:17;97125.22;;;26.32;71.43
40502;BME280;29631;49.168;9.848;2023-10-09T13:12:01;97110.75;;;26.23;71.92
40502;BME280;29631;49.168;9.848;2023-10-09T13:14:32;97113.94;;;26.25;71.55
40502;BME280;29631;49.168;9.848;2023-10-09T13:16:59;97106.94;;;26.24;71.24
40502;BME280;29631;49.168;9.848;2023-10-09T13:19:25;97101.16;;;26.12;71.52
40502;BME280;29631;49.168;9.848;2023-10-09T13:21:51;97099.25;;;26.31;71.28
40502;BME280;29631;49.168;9.848;2023-10-09T13:24:17;97101.25;;;26.43;71.78
40502;BME280;29631;49.168;9.848;2023-10-09T13:26:44;97089.34;;;26.44;71.22
40502;BME280;29631;49.168;9.848;2023-10-09T13:29:13;97084.28;;;26.56;71.14
40502;BME280;29631;49.168;9.848;2023-10-09T13:31:39;97073.09;;;26.44;70.34
40502;BME280;29631;49.168;9.848;2023-10-09T13:34:12;97097.16;;;26.64;70.19
40502;BME280;29631;49.168;9.848;2023-10-09T13:36:41;97099.69;;;26.74;70.48
40502;BME280;29631;49.168;9.848;2023-10-09T13:39:15;97101.66;;;26.87;70.58
40502;BME280;29631;49.168;9.848;2023-10-09T13:41:55;97093.44;;;26.92;70.07
40502;BME280;29631;49.168;9.848;2023-10-09T13:44:29;97086.81;;;26.98;70.33
40502;BME280;29631;49.168;9.848;2023-10-09T13:46:56;97088.88;;;27.06;70.17
40502;BME280;29631;49.168;9.848;2023-10-09T13:49:22;97074.94;;;26.99;69.87
40502;BME280;29631;49.168;9.848;2023-10-09T13:51:49;97087.59;;;27.17;69.64
40502;BME280;29631;49.168;9.848;2023-10-09T13:54:16;97075.03;;;27.08;69.20